Time;durP1;ratioP1;P1;durP2;ratioP2;P2;SDS_P1;SDS_P2;PMS_P1;PMS_P2;Temp;Humidity;BMP_temperature;BMP_pressure;BME280_temperature;BME280_humidity;BME280_pressure;Samples;Min_cycle;Max_cycle;Signal;HPM_P1;HPM_P2
2022/10/07 00:01:27;;;;;;;;;10.00;10.00;;;;;14.58;59.72;102386.53;5058554;28;45272;-65
2022/10/07 00:03:53;;;;;;;;;10.25;10.00;;;;;14.52;59.36;102376.81;5058166;28;46007;-65
2022/10/07 00:06:21;;;;;;;;;7.25;7.00;;;;;14.57;59.53;102382.97;5057806;28;45271;-65
2022/10/07 00:08:49;;;;;;;;;8.00;8.00;;;;;14.56;59.71;102385.69;5058496;28;46599;-65
2022/10/07 00:11:18;;;;;;;;;10.50;10.50;;;;;14.60;59.87;102399.06;5051798;28;45403;-65
2022/10/07 00:13:44;;;;;;;;;12.50;10.25;;;;;14.49;59.68;102379.59;5042388;28;45502;-65
2022/10/07 00:16:13;;;;;;;;;8.75;7.50;;;;;14.40;59.88;102367.25;5061161;28;46054;-65
2022/10/07 00:18:40;;;;;;;;;12.00;10.50;;;;;14.43;59.79;102368.97;5060991;28;46641;-65
2022/10/07 00:21:07;;;;;;;;;10.25;10.00;;;;;14.33;59.98;102351.28;5060466;28;45438;-65
2022/10/07 00:23:33;;;;;;;;;12.50;11.00;;;;;14.60;60.09;102400.84;5062214;28;45429;-65
2022/10/07 00:26:00;;;;;;;;;10.75;9.75;;;;;14.53;60.08;102388.44;5061035;28;45268;-65
2022/10/07 00:28:26;;;;;;;;;10.75;10.75;;;;;14.42;59.82;102370.78;5061730;28;45660;-65
2022/10/07 00:31:00;;;;;;;;;15.50;10.25;;;;;14.33;60.14;102354.84;5061936;28;45688;-65
2022/10/07 00:33:28;;;;;;;;;13.00;9.75;;;;;14.37;60.19;102359.25;5062098;28;45329;-65
2022/10/07 00:35:53;;;;;;;;;8.25;8.00;;;;;14.27;60.53;102338.88;5060826;28;45399;-65
2022/10/07 00:38:19;;;;;;;;;9.25;8.25;;;;;14.26;60.27;102347.84;5050199;28;45503;-65
2022/10/07 00:40:44;;;;;;;;;10.00;9.25;;;;;14.23;60.46;102339.84;5057151;28;45450;-65
2022/10/07 00:43:28;;;;;;;;;11.00;10.00;;;;;14.32;60.37;102355.78;5054180;28;45438;-65
2022/10/07 00:45:58;;;;;;;;;10.50;9.25;;;;;14.26;60.56;102350.53;5041061;28;45566;-65
2022/10/07 00:48:29;;;;;;;;;8.00;6.75;;;;;14.23;60.54;102348.81;5061330;28;46382;-65
2022/10/07 00:50:57;;;;;;;;;20.00;13.25;;;;;14.38;60.80;102370.88;5060724;28;45395;-65
2022/10/07 00:53:26;;;;;;;;;21.00;18.25;;;;;14.19;60.96;102341.72;5060781;28;45444;-65
2022/10/07 00:55:56;;;;;;;;;25.25;22.25;;;;;14.17;60.53;102338.22;5060757;28;45458;-65
2022/10/07 00:58:23;;;;;;;;;20.50;17.75;;;;;14.21;60.98;102342.56;5060992;28;45369;-65
2022/10/07 01:00:49;;;;;;;;;16.00;15.50;;;;;14.18;60.63;102342.66;5043293;28;45711;-65
2022/10/07 01:03:15;;;;;;;;;14.00;12.00;;;;;14.17;60.76;102331.97;5061430;28;45665;-65
2022/10/07 01:05:40;;;;;;;;;13.25;12.75;;;;;14.17;60.91;102335.53;5060486;28;45358;-64
2022/10/07 01:08:06;;;;;;;;;14.25;13.00;;;;;13.97;61.04;102303.72;5048737;28;45368;-65
2022/10/07 01:10:57;;;;;;;;;13.25;12.25;;;;;14.19;61.03;102338.16;5061383;28;45431;-65
2022/10/07 01:13:31;;;;;;;;;13.75;12.25;;;;;14.29;61.04;102355.84;5042132;28;45513;-65
2022/10/07 01:16:20;;;;;;;;;11.50;9.75;;;;;14.25;61.00;102348.78;5060361;28;45557;-64
2022/10/07 01:19:22;;;;;;;;;14.50;10.75;;;;;14.21;61.13;102341.69;5061187;28;45532;-65
2022/10/07 01:21:57;;;;;;;;;11.25;11.25;;;;;14.24;61.24;102349.69;5060045;28;45273;-65
2022/10/07 01:24:30;;;;;;;;;10.25;10.25;;;;;14.21;61.02;102347.06;5058952;28;45776;-65
2022/10/07 01:27:10;;;;;;;;;12.00;10.00;;;;;14.18;61.17;102339.06;5061059;28;45384;-65
2022/10/07 01:29:38;;;;;;;;;9.75;9.75;;;;;14.20;61.24;102342.59;5056090;28;47123;-65
2022/10/07 01:32:08;;;;;;;;;15.50;10.50;;;;;13.99;61.30;102309.06;5054680;28;45588;-64
2022/10/07 01:34:36;;;;;;;;;13.75;12.00;;;;;14.14;61.38;102335.59;5060492;28;45422;-65
2022/10/07 01:37:05;;;;;;;;;12.00;10.00;;;;;14.11;61.59;102332.97;5065112;28;45430;-65
2022/10/07 01:39:39;;;;;;;;;10.00;10.00;;;;;13.94;61.40;102303.78;5060451;28;45580;-65
2022/10/07 01:42:05;;;;;;;;;13.25;10.00;;;;;13.96;61.58;102306.44;5061780;28;45523;-64
2022/10/07 01:44:30;;;;;;;;;8.75;7.00;;;;;13.92;61.32;102294.91;5060030;28;45537;-65
2022/10/07 01:46:57;;;;;;;;;9.75;9.75;;;;;14.08;61.58;102328.56;5042315;28;45609;-65
2022/10/07 01:49:22;;;;;;;;;12.75;10.00;;;;;13.69;61.41;102261.38;5059776;28;45499;-65
2022/10/07 01:52:02;;;;;;;;;12.00;11.00;;;;;13.76;61.50;102270.16;5059526;28;45280;-64
2022/10/07 01:55:09;;;;;;;;;10.00;8.50;;;;;13.91;61.27;102298.50;5045288;28;45555;-65
2022/10/07 01:58:01;;;;;;;;;11.00;10.00;;;;;13.99;61.14;102307.25;5001578;28;45515;-65
2022/10/07 02:00:26;;;;;;;;;8.25;8.25;;;;;13.71;61.48;102262.25;5057262;28;46636;-65
2022/10/07 02:02:57;;;;;;;;;9.00;9.00;;;;;13.77;61.26;102274.63;5060364;28;45506;-64
2022/10/07 02:05:39;;;;;;;;;9.50;8.50;;;;;13.66;61.28;102249.81;5059979;28;45367;-65
2022/10/07 02:08:19;;;;;;;;;11.00;9.75;;;;;13.92;61.51;102294.03;5048117;28;45405;-65
2022/10/07 02:11:05;;;;;;;;;8.25;8.25;;;;;13.90;61.22;102297.63;5060383;28;46563;-64
2022/10/07 02:13:50;;;;;;;;;10.00;9.00;;;;;13.90;61.31;102291.38;5050956;28;45602;-65
2022/10/07 02:16:28;;;;;;;;;8.50;6.75;;;;;13.59;61.45;102237.47;5059475;28;45421;-65
2022/10/07 02:18:56;;;;;;;;;9.00;8.00;;;;;13.79;61.17;102271.91;5042055;28;45384;-65
2022/10/07 02:21:28;;;;;;;;;12.00;8.75;;;;;13.58;61.30;102230.31;5058792;28;45417;-64
2022/10/07 02:23:56;;;;;;;;;10.75;10.50;;;;;13.63;61.24;102250.78;5060042;28;45469;-65
2022/10/07 02:26:26;;;;;;;;;8.25;8.25;;;;;13.57;61.40;102237.50;5075628;27;45375;-65
2022/10/07 02:28:54;;;;;;;;;10.50;10.25;;;;;13.45;61.41;102225.22;5059733;28;45618;-65
2022/10/07 02:31:25;;;;;;;;;14.25;10.25;;;;;13.58;61.38;102249.09;5041868;28;47363;-65
2022/10/07 02:33:55;;;;;;;;;16.50;11.25;;;;;13.53;61.65;102233.09;5059958;28;45540;-65
2022/10/07 02:36:27;;;;;;;;;15.00;15.00;;;;;13.50;61.68;102228.69;5040762;28;45356;-65
2022/10/07 02:38:53;;;;;;;;;9.75;9.75;;;;;13.50;61.68;102220.63;5059695;28;45407;-65
2022/10/07 02:41:40;;;;;;;;;11.25;11.00;;;;;13.66;61.83;102255.19;5059540;28;46522;-65
2022/10/07 02:44:15;;;;;;;;;11.25;11.25;;;;;13.66;61.82;102255.19;5027539;28;45731;-65
2022/10/07 02:46:50;;;;;;;;;13.50;13.50;;;;;13.43;61.59;102210.97;5058069;28;45400;-65
2022/10/07 02:49:18;;;;;;;;;10.50;10.25;;;;;13.38;61.82;102201.22;5059801;28;45464;-65
2022/10/07 02:51:56;;;;;;;;;14.25;11.75;;;;;13.59;61.93;102246.38;5058751;28;45331;-64
2022/10/07 02:54:29;;;;;;;;;9.25;8.25;;;;;13.40;61.89;102211.03;5040760;28;45492;-65
2022/10/07 02:56:57;;;;;;;;;16.00;12.00;;;;;13.35;61.92;102202.19;5059576;28;45340;-65
2022/10/07 02:59:24;;;;;;;;;15.00;14.75;;;;;13.34;61.94;102197.72;5059461;28;45512;-64
2022/10/07 03:01:54;;;;;;;;;11.75;11.75;;;;;13.40;61.96;102204.75;5059172;28;45569;-65
2022/10/07 03:04:21;;;;;;;;;17.75;15.50;;;;;13.57;61.99;102234.81;5058949;28;45835;-64
2022/10/07 03:06:47;;;;;;;;;12.50;12.50;;;;;13.38;62.11;102202.13;5053896;28;45508;-64
2022/10/07 03:09:12;;;;;;;;;8.50;5.00;;;;;13.28;62.10;102190.69;5058939;28;45319;-65
2022/10/07 03:11:38;;;;;;;;;15.50;13.25;;;;;13.18;62.13;102169.44;5059391;28;46404;-65
2022/10/07 03:14:04;;;;;;;;;14.00;14.00;;;;;13.33;62.09;102194.16;5057545;28;46040;-65
2022/10/07 03:16:30;;;;;;;;;15.00;13.50;;;;;13.27;62.20;102185.34;5053874;28;45418;-65
2022/10/07 03:18:57;;;;;;;;;16.75;14.75;;;;;13.30;62.16;102191.50;5053365;28;45436;-65
2022/10/07 03:21:24;;;;;;;;;19.50;17.50;;;;;13.26;62.10;102187.13;5058945;28;45416;-65
2022/10/07 03:23:51;;;;;;;;;18.00;18.00;;;;;13.26;62.27;102181.75;5041203;28;45356;-65
2022/10/07 03:26:18;;;;;;;;;17.50;14.00;;;;;13.21;62.14;102175.59;5056415;28;45465;-65
2022/10/07 03:28:43;;;;;;;;;17.50;17.50;;;;;13.31;62.17;102192.38;5059018;28;45380;-65
2022/10/07 03:31:10;;;;;;;;;14.00;13.75;;;;;13.29;62.15;102192.41;5045606;28;45530;-65
2022/10/07 03:33:36;;;;;;;;;17.75;13.00;;;;;13.39;62.68;102205.69;5058376;28;45467;-64
2022/10/07 03:36:04;;;;;;;;;16.50;12.00;;;;;13.18;62.47;102166.75;5036991;28;45412;-65
2022/10/07 03:38:30;;;;;;;;;18.25;13.00;;;;;13.42;62.48;102211.00;5057679;28;45432;-65
2022/10/07 03:40:55;;;;;;;;;10.25;9.50;;;;;13.07;62.32;102157.13;5058041;28;46502;-65
2022/10/07 03:43:21;;;;;;;;;13.50;11.75;;;;;13.16;62.43;102170.34;5057817;28;45257;-65
2022/10/07 03:45:49;;;;;;;;;10.00;9.00;;;;;13.29;62.42;102194.22;5040888;28;45432;-64
2022/10/07 03:48:15;;;;;;;;;10.75;10.00;;;;;13.14;62.44;102168.59;5058206;28;45435;-65
2022/10/07 03:50:46;;;;;;;;;9.25;7.75;;;;;13.11;62.52;102165.97;5058891;28;45504;-65
2022/10/07 03:53:11;;;;;;;;;12.75;10.75;;;;;13.38;61.93;102214.63;5058142;28;45964;-65
2022/10/07 03:55:37;;;;;;;;;8.50;8.00;;;;;13.30;62.59;102194.19;5057555;28;46168;-65
2022/10/07 03:58:02;;;;;;;;;12.75;12.75;;;;;13.20;62.47;102181.00;5058498;28;45431;-65
2022/10/07 04:00:27;;;;;;;;;15.25;14.25;;;;;13.09;62.68;102163.34;5058511;28;46015;-65
2022/10/07 04:02:53;;;;;;;;;12.50;9.75;;;;;13.06;62.60;102157.16;5058668;28;45435;-65
2022/10/07 04:05:20;;;;;;;;;19.25;16.25;;;;;13.03;62.47;102147.41;5057503;28;45443;-65
2022/10/07 04:07:47;;;;;;;;;15.00;11.50;;;;;13.16;62.46;102174.81;5052131;28;45381;-64
2022/10/07 04:10:15;;;;;;;;;18.50;13.50;;;;;13.00;62.50;102151.91;5040360;28;47539;-65
2022/10/07 04:12:41;;;;;;;;;15.00;14.00;;;;;13.17;62.91;102190.00;5058270;28;45615;-64
2022/10/07 04:15:07;;;;;;;;;14.00;13.50;;;;;13.20;62.47;102189.03;5058069;28;45357;-65
2022/10/07 04:17:33;;;;;;;;;14.75;13.75;;;;;13.24;62.57;102193.44;5039858;28;45713;-65
2022/10/07 04:19:58;;;;;;;;;13.75;11.25;;;;;13.20;62.71;102192.63;5061406;28;45488;-65
2022/10/07 04:22:24;;;;;;;;;13.75;13.75;;;;;13.03;62.85;102162.56;5045056;28;45368;-64
2022/10/07 04:27:37;;;;;;;;;14.25;13.75;;;;;13.07;62.96;102169.66;5058189;28;45446;-65
2022/10/07 04:30:03;;;;;;;;;15.25;13.25;;;;;13.17;62.84;102190.00;5058374;28;46174;-65
2022/10/07 04:32:30;;;;;;;;;15.25;14.75;;;;;12.98;62.57;102163.56;5058380;28;45594;-65
2022/10/07 04:34:55;;;;;;;;;13.75;13.00;;;;;12.96;62.75;102160.03;5040100;28;45435;-64
2022/10/07 04:37:21;;;;;;;;;11.25;11.25;;;;;13.13;62.86;102182.91;5047392;28;45309;-65
2022/10/07 04:39:46;;;;;;;;;15.25;12.50;;;;;13.11;62.66;102188.34;5057902;28;46512;-65
2022/10/07 04:43:17;;;;;;;;;13.00;9.75;;;;;12.89;62.69;102150.31;5052310;28;45454;-64
2022/10/07 04:44:57;;;;;;;;;13.00;13.00;;;;;12.91;62.76;102148.53;5052209;28;45398;-65
2022/10/07 04:47:22;;;;;;;;;16.00;13.50;;;;;12.85;62.84;102131.69;5058022;28;45284;-64
2022/10/07 04:49:48;;;;;;;;;16.00;14.00;;;;;12.90;62.71;102144.06;5040022;28;47749;-65
2022/10/07 04:52:13;;;;;;;;;18.00;14.25;;;;;12.81;62.73;102129.97;5039016;28;45395;-65
2022/10/07 04:54:39;;;;;;;;;15.00;14.25;;;;;12.77;62.85;102123.78;5058012;28;45473;-65
2022/10/07 04:57:04;;;;;;;;;12.00;9.00;;;;;12.82;62.76;102126.38;5058061;28;45420;-64
2022/10/07 04:59:30;;;;;;;;;15.00;13.25;;;;;12.89;63.05;102144.97;5058794;28;45592;-64
2022/10/07 05:01:56;;;;;;;;;13.00;11.75;;;;;12.77;62.94;102124.66;5060122;28;45476;-64
2022/10/07 05:04:21;;;;;;;;;18.00;10.25;;;;;12.83;62.78;102133.47;5061413;28;45471;-64
2022/10/07 05:06:47;;;;;;;;;10.75;9.25;;;;;12.95;62.55;102158.25;5046180;28;45434;-64
2022/10/07 05:09:12;;;;;;;;;11.75;9.75;;;;;12.74;62.60;102123.84;5061069;28;45592;-65
2022/10/07 05:11:37;;;;;;;;;13.50;12.75;;;;;12.77;62.69;102131.81;5061439;28;45430;-65
2022/10/07 05:14:03;;;;;;;;;12.75;11.25;;;;;12.93;62.54;102162.78;5060962;28;45344;-64
2022/10/07 05:16:28;;;;;;;;;13.00;9.25;;;;;12.67;62.64;102123.06;5060669;28;45636;-65
2022/10/07 05:18:53;;;;;;;;;15.75;13.00;;;;;12.74;62.74;102129.19;5042893;28;46287;-65
2022/10/07 05:21:19;;;;;;;;;15.50;13.50;;;;;12.89;62.42;102163.72;5060997;28;45292;-65
2022/10/07 05:23:44;;;;;;;;;15.00;9.75;;;;;12.65;62.65;102118.66;5061306;28;45283;-65
2022/10/07 05:26:09;;;;;;;;;16.50;13.00;;;;;12.70;62.77;102123.03;5060357;28;45483;-65
2022/10/07 05:28:35;;;;;;;;;11.00;9.75;;;;;12.67;62.84;102133.78;5060218;28;45416;-65
2022/10/07 05:31:06;;;;;;;;;11.75;7.25;;;;;12.70;62.59;102139.09;5060217;28;45301;-65
2022/10/07 05:33:32;;;;;;;;;13.00;11.00;;;;;12.58;62.47;102116.09;5060420;28;45334;-65
2022/10/07 05:35:59;;;;;;;;;10.25;9.00;;;;;12.60;62.57;102133.03;5059155;28;45265;-65
2022/10/07 05:38:25;;;;;;;;;14.75;10.50;;;;;12.78;62.62;102160.41;5059199;28;45337;-65
2022/10/07 05:41:01;;;;;;;;;16.75;14.25;;;;;12.69;62.75;102147.16;5060470;28;45626;-65
2022/10/07 05:43:28;;;;;;;;;14.75;13.00;;;;;12.59;62.94;102138.41;5041848;28;45559;-65
2022/10/07 05:46:05;;;;;;;;;15.00;13.25;;;;;12.73;62.83;102159.56;5060639;28;45459;-65
2022/10/07 05:48:32;;;;;;;;;12.50;11.75;;;;;12.55;62.83;102134.91;5047882;28;45473;-65
2022/10/07 05:50:58;;;;;;;;;12.75;10.50;;;;;12.60;62.79;102143.72;5060604;28;45382;-64
2022/10/07 05:53:24;;;;;;;;;12.25;10.25;;;;;12.50;62.64;102123.38;5059724;28;45363;-65
2022/10/07 05:55:50;;;;;;;;;15.75;14.50;;;;;12.42;63.07;102109.25;5042414;28;45636;-64
2022/10/07 05:58:16;;;;;;;;;9.00;6.75;;;;;12.50;62.92;102131.44;5060061;28;45444;-65
2022/10/07 06:01:03;;;;;;;;;13.75;13.75;;;;;12.65;63.13;102151.69;5060314;28;45606;-65
2022/10/07 06:03:29;;;;;;;;;13.00;12.75;;;;;12.45;63.10;102127.94;5059874;28;45407;-65
2022/10/07 06:05:54;;;;;;;;;15.25;12.75;;;;;12.39;63.11;102126.25;5041921;28;45558;-64
2022/10/07 06:08:22;;;;;;;;;16.75;14.25;;;;;12.45;63.20;102130.63;5059308;28;45961;-65
2022/10/07 06:13:33;;;;;;;;;17.25;14.75;;;;;12.52;63.43;102145.66;5059339;28;45356;-65
2022/10/07 06:16:07;;;;;;;;;11.50;11.00;;;;;12.47;63.40;102123.44;5042003;28;45485;-65
2022/10/07 06:18:35;;;;;;;;;16.75;14.75;;;;;12.51;63.34;102140.34;5056073;28;46820;-64
2022/10/07 06:21:01;;;;;;;;;14.25;13.25;;;;;12.46;63.27;102124.34;5058966;28;45269;-64
2022/10/07 06:23:27;;;;;;;;;13.25;13.25;;;;;12.45;63.25;102130.63;5060459;28;45782;-65
2022/10/07 06:25:54;;;;;;;;;14.50;14.50;;;;;12.60;63.35;102148.22;5041864;28;45496;-65
2022/10/07 06:28:20;;;;;;;;;17.00;14.25;;;;;12.21;63.45;102091.78;5065915;28;46270;-65
2022/10/07 06:30:45;;;;;;;;;15.50;12.50;;;;;12.35;63.54;102116.50;5061552;28;45555;-65
2022/10/07 06:36:28;;;;;;;;;16.00;14.00;;;;;12.64;63.52;102165.13;5055301;28;46379;-69
2022/10/07 06:38:54;;;;;;;;;13.25;13.25;;;;;12.44;63.38;102130.66;5040528;28;47001;-68
2022/10/07 06:41:20;;;;;;;;;24.50;16.25;;;;;12.43;63.52;102129.78;5058386;28;47064;-65
2022/10/07 06:43:46;;;;;;;;;13.50;11.50;;;;;12.57;63.58;102149.13;5059646;28;45417;-66
2022/10/07 06:46:15;;;;;;;;;14.75;14.00;;;;;12.46;63.68;102132.38;5058618;28;45734;-65
2022/10/07 06:48:41;;;;;;;;;17.00;14.50;;;;;12.66;63.61;102169.50;5055271;28;45617;-66
2022/10/07 06:51:11;;;;;;;;;17.25;15.00;;;;;12.44;63.72;102125.31;5058740;28;45616;-66
2022/10/07 06:53:36;;;;;;;;;19.50;17.50;;;;;12.60;63.72;102154.44;5041514;28;45706;-66
2022/10/07 06:56:03;;;;;;;;;16.50;15.00;;;;;12.49;63.55;102128.78;5058696;28;45646;-66
2022/10/07 06:58:29;;;;;;;;;15.50;15.50;;;;;12.40;63.78;102113.75;5061566;28;45576;-66
2022/10/07 07:00:56;;;;;;;;;17.75;15.25;;;;;12.48;63.93;102132.34;5059074;28;45425;-66
2022/10/07 07:03:22;;;;;;;;;19.75;17.25;;;;;12.47;63.85;102120.75;5058653;28;45474;-66
2022/10/07 07:05:50;;;;;;;;;21.50;17.25;;;;;12.60;63.58;102143.72;5058200;28;45441;-66
2022/10/07 07:08:19;;;;;;;;;23.25;18.75;;;;;12.52;63.90;102134.94;5058407;28;46081;-66
2022/10/07 07:10:45;;;;;;;;;22.00;20.00;;;;;12.48;63.97;102127.00;5060017;28;45374;-66
2022/10/07 07:13:11;;;;;;;;;17.25;17.00;;;;;12.45;64.26;102135.97;5055376;28;45595;-66
2022/10/07 07:15:38;;;;;;;;;20.00;18.25;;;;;12.63;64.41;102164.25;5030708;28;45436;-66
2022/10/07 07:18:05;;;;;;;;;18.75;15.50;;;;;12.40;64.19;102120.00;5058459;28;45501;-66
2022/10/07 07:20:36;;;;;;;;;19.75;17.75;;;;;12.45;64.40;102127.94;5057937;28;45739;-66
2022/10/07 07:23:05;;;;;;;;;17.25;15.25;;;;;12.43;64.17;102129.78;5058455;28;45541;-67
2022/10/07 07:25:31;;;;;;;;;18.50;18.00;;;;;12.48;64.46;102125.22;5057904;28;45551;-64
2022/10/07 07:28:00;;;;;;;;;20.75;19.00;;;;;12.49;65.02;102120.75;5052903;28;45754;-65
2022/10/07 07:30:27;;;;;;;;;19.25;17.00;;;;;12.65;64.66;102151.69;5053924;28;45552;-65
2022/10/07 07:32:54;;;;;;;;;25.50;20.75;;;;;12.69;64.57;102149.84;5052943;28;45600;-65
2022/10/07 07:35:20;;;;;;;;;20.00;18.50;;;;;12.68;64.95;102150.72;5049567;28;45448;-65
2022/10/07 07:37:46;;;;;;;;;18.75;18.00;;;;;12.69;65.00;102147.16;5039057;28;48226;-65
2022/10/07 07:40:11;;;;;;;;;20.75;18.00;;;;;12.36;65.14;102093.28;5057475;28;45292;-65
2022/10/07 07:42:38;;;;;;;;;23.25;18.25;;;;;12.70;64.85;102148.94;5040025;28;45494;-65
2022/10/07 07:45:04;;;;;;;;;22.25;20.00;;;;;12.73;65.31;102148.84;5058555;28;45578;-65
2022/10/07 07:47:29;;;;;;;;;22.00;20.25;;;;;12.72;65.34;102141.75;5055427;28;45589;-65
2022/10/07 07:49:58;;;;;;;;;19.50;17.75;;;;;12.72;65.51;102147.97;5053051;28;45547;-66
2022/10/07 07:52:24;;;;;;;;;21.25;20.25;;;;;12.71;65.52;102132.84;5056006;28;45454;-66
2022/10/07 07:54:51;;;;;;;;;27.00;22.75;;;;;12.77;65.63;102145.22;5039429;28;45762;-65
2022/10/07 07:57:16;;;;;;;;;21.50;18.75;;;;;12.69;65.18;102115.00;5038012;28;48234;-69
2022/10/07 07:59:42;;;;;;;;;21.25;21.25;;;;;12.71;65.16;102102.47;5058158;28;45423;-66
2022/10/07 08:02:10;;;;;;;;;23.25;21.00;;;;;12.75;65.42;102118.44;5058153;28;45487;-66
2022/10/07 08:04:36;;;;;;;;;22.75;18.50;;;;;12.66;65.16;102082.91;5057194;28;45517;-66
2022/10/07 08:07:01;;;;;;;;;20.75;18.00;;;;;13.00;65.77;102131.38;5057066;28;45359;-66
2022/10/07 08:09:27;;;;;;;;;20.75;18.50;;;;;12.96;65.32;102114.47;5040105;28;45438;-66
2022/10/07 08:11:52;;;;;;;;;25.25;22.50;;;;;12.91;65.23;102110.09;5056797;28;45486;-66
2022/10/07 08:14:18;;;;;;;;;22.75;19.25;;;;;12.91;65.56;102108.31;5044512;28;45400;-66
2022/10/07 08:16:43;;;;;;;;;19.25;18.00;;;;;13.12;65.31;102135.59;5043053;28;47021;-66
2022/10/07 08:19:11;;;;;;;;;19.50;19.50;;;;;13.13;65.47;102126.63;5056092;28;45278;-67
2022/10/07 08:21:37;;;;;;;;;20.75;16.25;;;;;13.24;65.64;102129.09;5041765;28;45457;-66
2022/10/07 08:24:04;;;;;;;;;18.75;16.25;;;;;13.29;65.68;102140.59;5060743;28;45541;-65
2022/10/07 08:26:32;;;;;;;;;23.50;18.50;;;;;13.06;65.70;102091.00;5048377;28;47671;-65
2022/10/07 08:28:59;;;;;;;;;20.00;19.75;;;;;13.27;65.56;102121.84;5035387;28;45920;-64
2022/10/07 08:31:29;;;;;;;;;23.00;20.75;;;;;13.40;65.38;102132.34;5057048;28;45616;-64
2022/10/07 08:33:57;;;;;;;;;23.00;17.75;;;;;13.39;65.93;102118.06;5040373;28;45852;-64
2022/10/07 08:36:24;;;;;;;;;19.75;16.25;;;;;13.32;65.44;102087.81;5060154;28;45296;-64
2022/10/07 08:38:50;;;;;;;;;17.00;17.00;;;;;13.57;65.23;102121.25;5024361;28;45624;-62
2022/10/07 08:41:30;;;;;;;;;20.00;18.75;;;;;13.52;64.93;102100.75;5059783;28;45336;-64
2022/10/07 08:43:57;;;;;;;;;23.75;21.00;;;;;13.58;64.77;102096.16;5055463;28;45449;-63
2022/10/07 08:46:30;;;;;;;;;19.00;18.50;;;;;13.60;64.94;102086.28;5042952;28;47070;-63
2022/10/07 08:49:02;;;;;;;;;22.00;19.00;;;;;13.77;64.97;102112.75;5058937;28;45684;-63
2022/10/07 08:51:52;;;;;;;;;20.00;17.50;;;;;13.78;64.92;102093.00;5046392;28;45833;-63
2022/10/07 08:54:26;;;;;;;;;22.00;21.25;;;;;13.79;64.86;102067.94;5050552;28;45333;-64
2022/10/07 08:56:55;;;;;;;;;21.00;16.75;;;;;13.97;64.91;102094.34;5062224;28;46242;-64
2022/10/07 08:59:29;;;;;;;;;23.00;19.75;;;;;14.11;64.71;102106.53;5058507;28;45618;-64
2022/10/07 09:02:16;;;;;;;;;15.50;15.00;;;;;14.18;65.09;102098.28;5052745;28;45519;-63
2022/10/07 09:05:12;;;;;;;;;17.25;16.25;;;;;14.23;64.47;102085.63;5057332;28;45544;-64
2022/10/07 09:07:46;;;;;;;;;17.25;16.50;;;;;14.26;63.96;102085.50;5058781;28;45617;-63
2022/10/07 09:10:17;;;;;;;;;19.00;17.25;;;;;14.38;63.65;102089.72;5059711;28;45740;-63
2022/10/07 09:12:58;;;;;;;;;18.75;17.00;;;;;14.33;64.01;102067.44;5057664;28;45386;-64
2022/10/07 09:15:33;;;;;;;;;19.00;14.75;;;;;14.53;63.77;102084.81;5047008;28;45712;-63
2022/10/07 09:18:08;;;;;;;;;20.50;14.25;;;;;14.44;63.69;102051.03;5040739;28;48415;-63
2022/10/07 09:20:41;;;;;;;;;18.00;15.75;;;;;14.66;63.38;102059.41;5058011;28;45462;-63
2022/10/07 09:23:13;;;;;;;;;12.00;9.00;;;;;14.52;62.86;102029.34;5033665;28;45562;-63
2022/10/07 09:25:40;;;;;;;;;17.50;14.00;;;;;14.79;63.40;102063.50;5059469;28;45483;-63
2022/10/07 09:28:10;;;;;;;;;19.00;13.50;;;;;14.70;63.43;102036.91;5040470;28;46641;-63
2022/10/07 09:30:38;;;;;;;;;14.75;13.00;;;;;14.79;63.16;102030.38;5059234;28;45793;-63
2022/10/07 09:33:10;;;;;;;;;14.75;12.25;;;;;14.97;62.76;102042.41;5057187;28;45435;-63
2022/10/07 09:35:37;;;;;;;;;12.00;10.75;;;;;15.14;62.78;102053.50;5040290;28;45734;-63
2022/10/07 09:38:09;;;;;;;;;15.50;13.25;;;;;15.15;62.89;102033.75;5043955;28;47478;-63
2022/10/07 09:40:36;;;;;;;;;14.75;11.00;;;;;15.12;62.75;102015.03;5034922;28;45544;-63
2022/10/07 09:43:12;;;;;;;;;14.75;13.00;;;;;15.34;61.78;102042.13;5056383;28;46034;-63
2022/10/07 09:45:45;;;;;;;;;11.75;10.75;;;;;15.40;61.68;102042.84;5058207;28;45536;-64
2022/10/07 09:48:19;;;;;;;;;10.75;10.50;;;;;15.52;62.29;102037.97;5055231;28;45607;-63
2022/10/07 09:50:46;;;;;;;;;10.00;8.00;;;;;15.40;61.03;102002.50;5056285;28;45671;-63
2022/10/07 09:53:24;;;;;;;;;12.00;10.00;;;;;15.65;61.72;102026.78;5061859;28;45573;-63
2022/10/07 09:55:52;;;;;;;;;7.00;5.50;;;;;15.50;61.13;101982.41;5043038;28;45759;-63
2022/10/07 09:58:24;;;;;;;;;6.75;5.50;;;;;15.55;60.20;101973.28;5055067;28;45427;-63
2022/10/07 10:00:52;;;;;;;;;8.00;5.50;;;;;15.86;59.82;102015.34;5058245;28;45382;-63
2022/10/07 10:03:19;;;;;;;;;6.25;5.00;;;;;15.74;59.41;101983.44;5040814;28;45682;-63
2022/10/07 10:06:11;;;;;;;;;6.00;6.00;;;;;15.95;60.08;102008.75;5056464;28;45391;-62
2022/10/07 10:08:41;;;;;;;;;7.50;6.25;;;;;16.00;59.71;102003.22;5054466;28;46422;-62
2022/10/07 10:11:27;;;;;;;;;8.00;6.00;;;;;15.89;59.48;101982.06;5059140;28;45461;-63
2022/10/07 10:13:53;;;;;;;;;8.00;7.00;;;;;15.83;59.05;101950.81;5057944;28;45359;-62
2022/10/07 10:16:36;;;;;;;;;8.00;6.00;;;;;16.15;59.03;102002.66;5036823;28;46103;-62
2022/10/07 10:19:24;;;;;;;;;8.00;6.50;;;;;16.20;58.91;101995.28;5056485;28;46655;-63
2022/10/07 10:21:55;;;;;;;;;8.25;4.75;;;;;15.90;57.83;101941.63;5055017;28;45555;-63
2022/10/07 10:27:26;;;;;;;;;7.50;6.25;;;;;16.34;57.83;101985.81;5064278;27;45361;-63
2022/10/07 10:30:00;;;;;;;;;7.00;6.00;;;;;16.17;58.41;101946.94;5056823;28;46286;-63
2022/10/07 10:32:43;;;;;;;;;5.50;3.75;;;;;16.43;57.62;101980.97;5057824;28;45615;-63
2022/10/07 10:35:30;;;;;;;;;6.00;5.25;;;;;16.41;57.80;101963.13;5052407;28;45537;-63
2022/10/07 10:38:14;;;;;;;;;3.75;3.00;;;;;16.54;57.44;101977.91;5041792;28;45542;-63
2022/10/07 10:41:02;;;;;;;;;4.75;2.50;;;;;16.59;57.03;101980.38;5045181;28;46394;-63
2022/10/07 10:43:33;;;;;;;;;4.75;2.75;;;;;16.65;56.58;101966.69;5061640;27;45848;-63
2022/10/07 10:46:23;;;;;;;;;5.00;4.00;;;;;16.71;56.36;101974.56;5056567;28;45445;-63
2022/10/07 10:49:21;;;;;;;;;4.25;3.00;;;;;16.53;56.23;101929.44;5051533;28;45941;-63
2022/10/07 10:52:08;;;;;;;;;2.00;1.25;;;;;16.68;56.10;101953.09;5058666;28;47251;-63
2022/10/07 10:54:34;;;;;;;;;4.50;1.25;;;;;16.82;55.02;101964.22;5045847;28;45599;-63
2022/10/07 10:57:10;;;;;;;;;2.50;2.00;;;;;16.82;55.81;101958.84;5062203;28;45402;-63
2022/10/07 11:00:04;;;;;;;;;3.25;2.00;;;;;16.92;54.86;101958.50;5040054;28;45594;-63
2022/10/07 11:02:39;;;;;;;;;2.75;2.00;;;;;16.94;55.07;101938.63;5049806;28;45693;-63
2022/10/07 11:05:10;;;;;;;;;5.00;1.25;;;;;16.95;54.66;101934.97;5050033;28;45771;-63
2022/10/07 11:07:42;;;;;;;;;4.25;2.00;;;;;16.97;54.62;101934.91;5046703;28;45323;-63
2022/10/07 11:10:35;;;;;;;;;2.00;1.00;;;;;16.93;54.47;101909.88;5064979;28;45552;-63
2022/10/07 11:13:22;;;;;;;;;1.00;1.00;;;;;17.14;53.87;101926.13;5057354;28;45640;-63
2022/10/07 11:16:21;;;;;;;;;3.50;1.50;;;;;17.21;53.54;101933.06;5044128;28;45957;-63
2022/10/07 11:18:53;;;;;;;;;3.25;2.00;;;;;17.09;53.43;101890.38;5034855;28;45389;-63
2022/10/07 11:21:31;;;;;;;;;2.50;2.00;;;;;17.20;53.22;101902.47;5050088;28;45364;-63
2022/10/07 11:24:12;;;;;;;;;3.00;2.50;;;;;17.32;52.96;101913.69;5045671;28;47236;-63
2022/10/07 11:26:57;;;;;;;;;2.00;2.00;;;;;17.32;53.49;101902.91;5055344;28;45563;-62
2022/10/07 11:29:35;;;;;;;;;3.25;1.00;;;;;17.36;52.89;101907.25;5055559;28;45801;-63
2022/10/07 11:32:11;;;;;;;;;5.00;3.00;;;;;17.31;52.62;101879.59;5067150;27;45467;-62
2022/10/07 11:34:52;;;;;;;;;2.75;2.50;;;;;17.35;52.45;101887.47;5061258;28;45537;-63
2022/10/07 11:37:32;;;;;;;;;4.25;3.00;;;;;17.37;52.26;101880.19;5054762;27;45479;-63
2022/10/07 11:39:58;;;;;;;;;4.50;3.50;;;;;17.27;53.09;101859.06;5041386;28;45714;-63
2022/10/07 11:42:27;;;;;;;;;4.00;1.50;;;;;17.47;52.54;101886.06;5027674;28;45678;-63